Time;durP1;ratioP1;P1;durP2;ratioP2;P2;SDS_P1;SDS_P2;PMS_P1;PMS_P2;Temp;Humidity;BMP_temperature;BMP_pressure;BME280_temperature;BME280_humidity;BME280_pressure;Samples;Min_cycle;Max_cycle;Signal;HPM_P1;HPM_P2
2024/02/16 00:00:10;;;;;;;32.72;21.33;;;;;;;1.79;95.11;93531.16;5066231;28;20044;-73
2024/02/16 00:02:40;;;;;;;34.60;21.45;;;;;;;1.77;95.05;93535.59;5073347;28;20054;-75
2024/02/16 00:05:10;;;;;;;32.80;20.08;;;;;;;1.70;94.44;93530.31;5079387;28;20051;-74
2024/02/16 00:07:37;;;;;;;28.23;20.00;;;;;;;1.73;95.50;93536.81;5071873;28;20045;-73
2024/02/16 00:10:06;;;;;;;29.77;19.40;;;;;;;1.68;94.85;93541.53;5074434;28;20056;-72
2024/02/16 00:12:34;;;;;;;28.80;18.70;;;;;;;1.62;94.13;93539.56;5077024;28;20132;-73
2024/02/16 00:15:01;;;;;;;35.13;19.17;;;;;;;1.60;94.52;93542.25;5070605;28;20508;-73
2024/02/16 00:17:29;;;;;;;30.92;19.63;;;;;;;1.42;94.97;93525.34;5071981;28;20040;-73
2024/02/16 00:19:57;;;;;;;32.55;19.45;;;;;;;1.52;95.51;93540.44;5074835;28;20048;-73
2024/02/16 00:22:24;;;;;;;33.67;21.73;;;;;;;1.60;95.04;93545.59;5077165;28;20048;-73
2024/02/16 00:24:50;;;;;;;33.05;20.67;;;;;;;1.49;95.68;93550.06;5075531;28;20760;-73
2024/02/16 00:27:19;;;;;;;34.20;20.30;;;;;;;1.31;97.05;93530.63;5075236;28;20158;-73
2024/02/16 00:29:47;;;;;;;28.38;19.48;;;;;;;1.50;96.23;93546.59;5076357;28;20044;-73
2024/02/16 00:32:14;;;;;;;27.95;19.40;;;;;;;1.43;96.62;93554.78;5081162;28;20167;-72
2024/02/16 00:34:41;;;;;;;24.42;16.77;;;;;;;1.47;96.40;93555.28;5067662;28;20047;-73
2024/02/16 00:37:09;;;;;;;31.73;20.27;;;;;;;1.40;95.73;93542.41;5073209;28;20049;-74
2024/02/16 00:39:36;;;;;;;30.42;19.38;;;;;;;1.49;96.34;93550.06;5076828;28;20500;-73
2024/02/16 00:42:04;;;;;;;34.95;21.13;;;;;;;1.57;96.18;93557.75;5073562;28;20140;-73
2024/02/16 00:44:32;;;;;;;28.40;18.90;;;;;;;1.52;95.45;93559.91;5077751;28;20493;-73
2024/02/16 00:46:59;;;;;;;30.55;19.45;;;;;;;1.51;95.02;93558.31;5075048;28;20056;-73
2024/02/16 00:49:26;;;;;;;26.90;17.23;;;;;;;1.44;95.46;93558.88;5075274;28;20044;-73
2024/02/16 00:51:53;;;;;;;27.15;17.60;;;;;;;1.45;94.72;93552.09;5074902;28;20049;-73
2024/02/16 00:54:20;;;;;;;27.20;17.58;;;;;;;1.36;95.67;93556.28;5080654;28;20044;-73
2024/02/16 00:56:48;;;;;;;27.52;18.05;;;;;;;1.31;96.15;93558.47;5082043;28;20059;-73
2024/02/16 00:59:15;;;;;;;27.33;17.20;;;;;;;1.33;95.77;93552.31;5076843;28;20099;-72
2024/02/16 01:01:43;;;;;;;27.50;17.02;;;;;;;1.32;96.36;93558.31;5077334;28;20044;-73
2024/02/16 01:04:10;;;;;;;26.90;16.20;;;;;;;1.27;95.46;93557.97;5073084;28;20415;-72
2024/02/16 01:06:37;;;;;;;27.27;16.55;;;;;;;1.15;95.01;93547.25;5076103;28;20461;-72
2024/02/16 01:09:04;;;;;;;26.33;17.67;;;;;;;1.21;95.14;93556.00;5082399;28;20051;-72
2024/02/16 01:11:32;;;;;;;28.23;16.77;;;;;;;1.09;95.73;93552.88;5072963;28;20052;-72
2024/02/16 01:13:59;;;;;;;26.77;16.15;;;;;;;1.04;96.13;93553.31;5069359;28;20048;-72
2024/02/16 01:16:25;;;;;;;23.80;16.00;;;;;;;1.03;97.49;93550.91;5079620;28;20050;-72
2024/02/16 01:18:54;;;;;;;24.30;16.05;;;;;;;1.14;96.06;93550.72;5076590;28;20052;-72
2024/02/16 01:21:21;;;;;;;22.67;15.45;;;;;;;1.12;96.74;93555.13;5073594;28;20064;-73
2024/02/16 01:23:48;;;;;;;21.38;14.73;;;;;;;1.04;97.68;93547.44;5072879;28;20102;-73
2024/02/16 01:26:15;;;;;;;23.95;15.63;;;;;;;1.06;97.86;93555.69;5073460;28;20574;-72
2024/02/16 01:28:42;;;;;;;25.15;15.88;;;;;;;1.02;99.05;93551.88;5073705;28;20090;-72
2024/02/16 01:31:09;;;;;;;27.17;17.60;;;;;;;0.94;98.09;93522.22;5070194;28;20139;-72
2024/02/16 01:33:36;;;;;;;26.58;16.30;;;;;;;1.06;98.35;93543.03;5072839;28;20040;-73
2024/02/16 01:36:05;;;;;;;27.30;16.23;;;;;;;0.99;98.52;93537.75;5069190;28;20048;-73
2024/02/16 01:38:33;;;;;;;29.40;17.50;;;;;;;1.03;98.29;93541.56;5073500;28;20050;-73
2024/02/16 01:41:01;;;;;;;28.65;17.88;;;;;;;1.06;98.01;93545.56;5070806;28;20053;-73
2024/02/16 01:43:28;;;;;;;28.85;18.30;;;;;;;1.06;97.59;93540.50;5070066;28;20168;-73
2024/02/16 01:45:57;;;;;;;30.20;17.98;;;;;;;1.12;97.01;93531.56;5074683;28;20044;-73
2024/02/16 01:48:24;;;;;;;27.17;16.42;;;;;;;1.08;96.59;93531.03;5070476;28;20048;-73
2024/02/16 01:50:51;;;;;;;26.52;17.33;;;;;;;1.14;96.12;93535.53;5079672;28;20049;-72
2024/02/16 01:53:20;;;;;;;27.25;16.63;;;;;;;1.08;95.56;93533.56;5071153;28;20522;-72
2024/02/16 01:55:47;;;;;;;25.58;16.23;;;;;;;1.09;94.34;93537.69;5069250;28;20044;-72
2024/02/16 01:58:14;;;;;;;25.33;16.20;;;;;;;0.98;94.20;93533.66;5073156;28;20039;-72
2024/02/16 02:00:42;;;;;;;26.98;17.05;;;;;;;0.99;95.02;93534.44;5079598;28;20044;-72
2024/02/16 02:03:09;;;;;;;25.20;15.02;;;;;;;0.96;95.06;93527.13;5075201;28;20514;-72
2024/02/16 02:05:45;;;;;;;23.10;15.35;;;;;;;0.79;95.04;93514.31;5068497;28;20390;-72
2024/02/16 02:08:13;;;;;;;26.00;16.15;;;;;;;0.61;94.61;93494.06;5068510;28;20044;-73
2024/02/16 02:10:42;;;;;;;25.70;15.82;;;;;;;0.83;94.60;93540.13;5067403;28;20045;-73
2024/02/16 02:13:10;;;;;;;26.70;16.05;;;;;;;0.78;95.03;93535.47;5069347;28;20070;-73
2024/02/16 02:15:37;;;;;;;25.30;16.02;;;;;;;0.64;95.16;93539.25;5080382;28;20076;-73
2024/02/16 02:18:04;;;;;;;22.98;14.45;;;;;;;0.61;96.43;93537.81;5070154;28;20829;-73
2024/02/16 02:20:31;;;;;;;24.05;15.40;;;;;;;0.62;96.12;93531.03;5070097;28;20036;-73
2024/02/16 02:22:59;;;;;;;30.30;17.98;;;;;;;0.70;95.83;93535.38;5074638;28;20052;-73
2024/02/16 02:25:28;;;;;;;28.98;17.63;;;;;;;0.67;95.82;93536.47;5070013;28;20046;-73
2024/02/16 02:27:55;;;;;;;25.90;17.13;;;;;;;0.68;95.36;93532.22;5067716;28;20080;-73
2024/02/16 02:30:22;;;;;;;26.33;15.40;;;;;;;0.63;95.32;93532.63;5070017;28;20527;-73
2024/02/16 02:32:50;;;;;;;24.92;16.77;;;;;;;0.61;95.80;93530.22;5077569;28;20068;-72
2024/02/16 02:35:18;;;;;;;23.40;14.95;;;;;;;0.58;95.50;93533.06;5070939;28;20051;-72
2024/02/16 02:37:45;;;;;;;27.80;17.33;;;;;;;0.53;95.72;93530.13;5069733;28;20492;-73
2024/02/16 02:40:14;;;;;;;25.10;15.90;;;;;;;0.58;96.74;93534.75;5073877;28;20048;-73
2024/02/16 02:42:41;;;;;;;24.30;16.52;;;;;;;0.50;96.85;93535.47;5070634;28;20048;-73
2024/02/16 02:45:09;;;;;;;25.42;16.38;;;;;;;0.55;95.93;93530.78;5069717;28;20044;-72
2024/02/16 02:47:36;;;;;;;26.95;15.65;;;;;;;0.51;95.93;93532.03;5077550;28;20072;-72
2024/02/16 02:50:04;;;;;;;30.52;18.05;;;;;;;0.42;97.02;93528.59;5072861;28;20124;-72
2024/02/16 02:52:31;;;;;;;25.92;16.58;;;;;;;0.48;97.07;93527.22;5073935;28;20059;-72
2024/02/16 02:54:58;;;;;;;25.35;16.55;;;;;;;0.47;97.18;93525.66;5076526;28;20083;-73
2024/02/16 02:57:26;;;;;;;26.77;17.23;;;;;;;0.44;97.35;93525.91;5074115;28;20050;-72
2024/02/16 02:59:53;;;;;;;25.38;16.35;;;;;;;0.48;96.93;93529.75;5071950;28;20040;-72
2024/02/16 03:02:20;;;;;;;26.40;16.20;;;;;;;0.46;97.19;93532.44;5069624;28;20052;-72
2024/02/16 03:04:47;;;;;;;23.88;16.77;;;;;;;0.44;97.24;93531.78;5070327;28;20063;-72
2024/02/16 03:07:14;;;;;;;26.70;16.23;;;;;;;0.42;97.43;93533.66;5069855;28;20048;-72
2024/02/16 03:09:43;;;;;;;29.00;16.08;;;;;;;0.43;96.72;93530.19;5067491;28;20091;-72
2024/02/16 03:12:10;;;;;;;23.25;15.50;;;;;;;0.35;96.07;93535.13;5072310;28;20076;-72
2024/02/16 03:14:39;;;;;;;25.27;15.77;;;;;;;0.28;96.76;93529.84;5069802;28;20530;-72
2024/02/16 03:17:06;;;;;;;21.88;14.32;;;;;;;0.17;96.76;93523.22;5070191;28;20052;-72
2024/02/16 03:19:34;;;;;;;23.48;14.82;;;;;;;0.20;97.02;93532.25;5069896;28;20083;-72
2024/02/16 03:22:01;;;;;;;23.70;14.30;;;;;;;0.16;96.93;93536.78;5071472;28;20060;-72
2024/02/16 03:24:28;;;;;;;22.33;13.80;;;;;;;0.13;97.33;93537.88;5070128;28;20131;-72
2024/02/16 03:26:55;;;;;;;23.98;13.63;;;;;;;0.10;97.17;93540.66;5069397;28;20050;-72
2024/02/16 03:29:22;;;;;;;23.38;15.05;;;;;;;0.17;97.00;93537.56;5074644;28;20128;-72
2024/02/16 03:31:51;;;;;;;26.08;16.05;;;;;;;0.15;97.20;93536.94;5071264;28;20051;-72
2024/02/16 03:34:18;;;;;;;21.45;14.50;;;;;;;0.18;97.05;93534.13;5069547;28;20084;-73
2024/02/16 03:36:45;;;;;;;23.75;14.48;;;;;;;0.18;97.21;93544.25;5070621;28;20048;-72
2024/02/16 03:39:12;;;;;;;21.95;14.65;;;;;;;0.19;97.05;93536.50;5072040;28;20048;-72
2024/02/16 03:41:39;;;;;;;22.05;14.05;;;;;;;0.10;98.01;93533.06;5076287;28;20044;-72
2024/02/16 03:44:06;;;;;;;20.67;13.52;;;;;;;0.09;98.44;93545.88;5073629;28;20130;-72
2024/02/16 03:46:33;;;;;;;22.50;13.73;;;;;;;0.09;97.12;93535.75;5073122;28;20060;-72
2024/02/16 03:49:38;;;;;;;23.67;13.82;;;;;;;-0.09;96.50;93528.09;5074690;28;20946;-72
2024/02/16 03:52:09;;;;;;;20.98;14.40;;;;;;;-0.05;97.03;93534.47;5021537;28;20083;-72
2024/02/16 03:55:03;;;;;;;21.48;14.48;;;;;;;-0.47;97.05;93475.03;5070990;28;20044;-71
2024/02/16 03:57:31;;;;;;;21.17;13.43;;;;;;;-0.08;97.08;93540.59;5073837;28;20049;-72
2024/02/16 03:59:59;;;;;;;21.42;14.70;;;;;;;-0.07;97.31;93543.88;5077173;28;20055;-72
2024/02/16 04:02:26;;;;;;;22.65;14.88;;;;;;;-0.17;97.20;93536.34;5071258;28;20048;-71
2024/02/16 04:04:54;;;;;;;19.98;12.93;;;;;;;-0.29;96.88;93525.59;5074550;28;20051;-71
2024/02/16 04:07:21;;;;;;;20.25;14.00;;;;;;;-0.30;98.43;93541.66;5071339;28;20152;-71
2024/02/16 04:09:48;;;;;;;30.40;18.00;;;;;;;-0.21;97.79;93535.81;5074518;28;20048;-71
2024/02/16 04:12:15;;;;;;;29.83;17.70;;;;;;;-0.37;99.11;93528.78;5072789;28;20078;-71
2024/02/16 04:14:43;;;;;;;29.73;18.45;;;;;;;-0.43;99.46;93516.69;5075624;28;20040;-71
2024/02/16 04:17:10;;;;;;;339.60;151.23;;;;;;;-0.49;100.00;93535.72;5074044;28;20114;-72
2024/02/16 04:19:38;;;;;;;161.38;81.25;;;;;;;-0.42;100.00;93543.53;5073206;28;20055;-72
2024/02/16 04:22:07;;;;;;;123.47;60.03;;;;;;;-0.39;100.00;93542.47;5077698;28;20060;-72
2024/02/16 04:24:33;;;;;;;64.22;35.25;;;;;;;-0.42;100.00;93538.47;5072611;28;20054;-72
2024/02/16 04:27:00;;;;;;;46.78;28.63;;;;;;;-0.34;100.00;93541.16;5072662;28;20390;-72
2024/02/16 04:29:28;;;;;;;38.97;21.95;;;;;;;-0.49;100.00;93520.56;5073203;28;20044;-72
2024/02/16 04:31:54;;;;;;;30.27;19.55;;;;;;;-0.32;100.00;93544.31;5082023;28;20052;-71
2024/02/16 04:34:26;;;;;;;33.00;19.83;;;;;;;-0.30;100.00;93544.19;5073704;28;20489;-71
2024/02/16 04:36:52;;;;;;;26.65;17.50;;;;;;;-0.35;100.00;93548.84;5077741;28;20081;-71
2024/02/16 04:39:21;;;;;;;31.10;17.05;;;;;;;-0.34;100.00;93552.97;5071080;28;20055;-71
2024/02/16 04:41:59;;;;;;;27.20;16.88;;;;;;;-0.29;100.00;93544.06;5079449;28;20865;-71
2024/02/16 04:44:26;;;;;;;31.55;18.20;;;;;;;-0.28;100.00;93549.88;5071734;28;20420;-71
2024/02/16 04:46:53;;;;;;;30.10;17.45;;;;;;;-0.37;100.00;93546.44;5072584;28;20052;-71
2024/02/16 04:49:21;;;;;;;27.60;16.75;;;;;;;-0.31;100.00;93550.19;5070996;28;20417;-71
2024/02/16 04:51:48;;;;;;;26.65;16.00;;;;;;;-0.30;100.00;93551.75;5071315;28;20105;-71
2024/02/16 04:54:15;;;;;;;33.90;19.75;;;;;;;-0.24;100.00;93560.53;5079530;28;20044;-71
2024/02/16 04:56:43;;;;;;;40.38;24.80;;;;;;;-0.43;100.00;93521.75;5081822;28;20665;-71
2024/02/16 04:59:10;;;;;;;56.13;29.83;;;;;;;-0.33;100.00;93545.25;5079863;28;20058;-71
2024/02/16 05:01:37;;;;;;;61.75;36.15;;;;;;;-0.34;100.00;93552.97;5079495;28;20037;-71
2024/02/16 05:04:05;;;;;;;48.80;30.35;;;;;;;-0.42;100.00;93544.34;5071520;28;20052;-71
2024/02/16 05:06:32;;;;;;;44.60;28.90;;;;;;;-0.42;99.89;93551.91;5073754;28;20050;-71
2024/02/16 05:08:59;;;;;;;55.38;32.53;;;;;;;-0.35;100.00;93556.41;5074004;28;20045;-71
2024/02/16 05:11:26;;;;;;;57.63;34.03;;;;;;;-0.35;100.00;93558.94;5071296;28;20048;-71
2024/02/16 05:13:55;;;;;;;52.10;29.88;;;;;;;-0.41;99.64;93563.59;5070760;28;20420;-71
2024/02/16 05:16:22;;;;;;;46.95;26.38;;;;;;;-0.43;98.56;93568.00;5074762;28;20401;-71
2024/02/16 05:18:49;;;;;;;71.15;36.90;;;;;;;-0.48;99.79;93577.69;5069159;28;20048;-71
2024/02/16 05:21:16;;;;;;;60.60;33.47;;;;;;;-0.45;100.00;93566.53;5071273;28;20051;-71
2024/02/16 05:23:43;;;;;;;55.28;31.60;;;;;;;-0.58;98.77;93557.50;5081311;28;20064;-71
2024/02/16 05:26:10;;;;;;;38.47;21.42;;;;;;;-0.50;99.31;93573.69;5069652;28;20053;-71
2024/02/16 05:28:37;;;;;;;32.58;20.30;;;;;;;-0.52;98.77;93580.63;5073258;28;20048;-71
2024/02/16 05:31:17;;;;;;;34.72;21.58;;;;;;;-0.58;98.59;93575.16;5070160;28;20045;-72
2024/02/16 05:33:44;;;;;;;27.70;18.25;;;;;;;-0.68;98.09;93574.34;5076166;28;20134;-71
2024/02/16 05:36:11;;;;;;;26.33;17.10;;;;;;;-0.70;98.67;93586.28;5079483;28;20054;-71
2024/02/16 05:38:43;;;;;;;25.65;17.58;;;;;;;-0.75;99.62;93579.13;5076634;28;20073;-71
2024/02/16 05:41:10;;;;;;;29.17;19.65;;;;;;;-0.79;100.00;93587.09;5076565;28;20066;-71
2024/02/16 05:43:39;;;;;;;30.83;20.35;;;;;;;-0.85;100.00;93584.16;5075214;28;20055;-71
2024/02/16 05:46:07;;;;;;;42.00;26.48;;;;;;;-0.82;100.00;93580.56;5072019;28;20420;-71
2024/02/16 05:48:37;;;;;;;39.28;25.17;;;;;;;-0.84;100.00;93585.75;5079864;28;20043;-71
2024/02/16 05:51:05;;;;;;;38.75;24.60;;;;;;;-0.75;100.00;93589.22;5072168;28;20044;-71
2024/02/16 05:53:32;;;;;;;28.98;20.13;;;;;;;-0.86;100.00;93572.47;5073418;28;20048;-71
2024/02/16 05:55:59;;;;;;;29.85;17.92;;;;;;;-0.78;100.00;93586.16;5070965;28;20055;-71
2024/02/16 05:58:26;;;;;;;31.13;22.95;;;;;;;-0.76;100.00;93589.34;5070966;28;20138;-71
2024/02/16 06:00:55;;;;;;;29.55;19.15;;;;;;;-0.75;100.00;93593.47;5073694;28;20151;-71
2024/02/16 06:03:23;;;;;;;43.70;24.05;;;;;;;-0.72;100.00;93594.00;5071429;28;20056;-71
2024/02/16 06:05:50;;;;;;;31.02;21.23;;;;;;;-0.68;100.00;93597.84;5069488;28;20377;-71
2024/02/16 06:08:19;;;;;;;37.30;21.70;;;;;;;-0.64;100.00;93597.59;5069397;28;20048;-71
2024/02/16 06:10:50;;;;;;;27.67;17.50;;;;;;;-0.64;100.00;93590.03;5072175;28;20065;-71
2024/02/16 06:13:17;;;;;;;30.30;17.98;;;;;;;-0.48;100.00;93599.59;5073212;28;20127;-71
2024/02/16 06:15:44;;;;;;;29.20;18.40;;;;;;;-0.47;100.00;93603.72;5082373;28;20139;-71
2024/02/16 06:18:12;;;;;;;40.03;22.95;;;;;;;-0.38;100.00;93597.09;5068781;28;20045;-71
2024/02/16 06:20:43;;;;;;;163.73;71.75;;;;;;;-0.25;100.00;93601.84;5070419;28;20079;-71
2024/02/16 06:23:10;;;;;;;102.78;49.10;;;;;;;-0.17;100.00;93597.75;5067791;28;20057;-71
2024/02/16 06:25:37;;;;;;;91.03;44.63;;;;;;;-0.10;100.00;93605.56;5070601;28;20044;-71
2024/02/16 06:28:05;;;;;;;74.53;39.63;;;;;;;-0.18;100.00;93592.81;5075679;28;20052;-71
2024/02/16 06:30:32;;;;;;;63.60;33.75;;;;;;;0.01;100.00;93601.31;5068712;28;20127;-71
2024/02/16 06:33:00;;;;;;;57.67;32.33;;;;;;;0.06;100.00;93596.63;5070284;28;20675;-71
2024/02/16 06:35:27;;;;;;;55.85;30.55;;;;;;;0.24;100.00;93600.06;5069205;28;20496;-71
2024/02/16 06:37:56;;;;;;;47.47;28.58;;;;;;;0.29;100.00;93607.25;5073107;28;20075;-71
2024/02/16 06:40:23;;;;;;;44.13;25.70;;;;;;;0.38;100.00;93593.00;5073745;28;20119;-71
2024/02/16 06:42:50;;;;;;;50.67;29.20;;;;;;;0.50;100.00;93604.53;5068670;28;20459;-72
2024/02/16 06:45:17;;;;;;;50.17;28.98;;;;;;;0.62;100.00;93599.28;5070956;28;20052;-71
2024/02/16 06:47:44;;;;;;;52.53;28.58;;;;;;;0.70;100.00;93596.88;5067453;28;20128;-71
2024/02/16 06:50:11;;;;;;;40.88;25.30;;;;;;;0.80;100.00;93599.34;5069237;28;20123;-72
2024/02/16 06:52:38;;;;;;;37.80;22.80;;;;;;;0.98;100.00;93596.06;5080092;28;20054;-71
2024/02/16 06:55:08;;;;;;;43.28;27.02;;;;;;;1.16;100.00;93601.19;5076068;28;20048;-72
2024/02/16 06:57:34;;;;;;;34.40;21.35;;;;;;;1.31;100.00;93599.72;5067870;28;20492;-73
2024/02/16 07:00:03;;;;;;;43.38;23.63;;;;;;;1.48;100.00;93594.06;5073520;28;20050;-72
2024/02/16 07:02:29;;;;;;;46.58;22.63;;;;;;;1.68;100.00;93610.69;5069555;28;20131;-72
2024/02/16 07:04:56;;;;;;;43.75;24.00;;;;;;;1.83;100.00;93598.31;5068774;28;20420;-72
2024/02/16 07:07:23;;;;;;;40.47;22.63;;;;;;;2.03;99.59;93600.66;5070162;28;20040;-72
2024/02/16 07:09:50;;;;;;;40.72;21.88;;;;;;;2.17;99.05;93599.34;5076874;28;20050;-72
2024/02/16 07:12:18;;;;;;;57.50;28.13;;;;;;;2.37;100.00;93597.41;5071431;28;20058;-72
2024/02/16 07:14:46;;;;;;;64.40;31.25;;;;;;;2.51;100.00;93592.75;5075204;28;20128;-72
2024/02/16 07:17:13;;;;;;;58.70;30.02;;;;;;;2.65;100.00;93599.00;5074080;28;20044;-72
2024/02/16 07:19:40;;;;;;;45.67;25.23;;;;;;;2.81;100.00;93593.19;5077904;28;20048;-72
2024/02/16 07:22:07;;;;;;;35.58;20.67;;;;;;;2.95;99.76;93589.28;5070449;28;20044;-72
2024/02/16 07:24:35;;;;;;;38.08;23.02;;;;;;;3.14;99.32;93592.53;5072128;28;20071;-72
2024/02/16 07:27:02;;;;;;;34.05;21.10;;;;;;;3.27;99.69;93597.94;5081675;28;21090;-72
2024/02/16 07:29:31;;;;;;;36.83;23.33;;;;;;;3.44;97.99;93596.25;5076734;28;20495;-73
2024/02/16 07:31:58;;;;;;;48.35;25.95;;;;;;;3.63;97.41;93596.91;5079402;28;20055;-73
2024/02/16 07:34:25;;;;;;;26.30;16.90;;;;;;;3.77;94.41;93594.69;5067171;28;20131;-73
2024/02/16 07:36:52;;;;;;;36.28;17.30;;;;;;;3.96;92.51;93601.22;5075103;28;20060;-73
2024/02/16 07:39:22;;;;;;;19.60;12.40;;;;;;;4.13;91.28;93607.88;5074696;28;20125;-73
2024/02/16 07:41:49;;;;;;;22.30;14.52;;;;;;;4.25;87.99;93613.44;5064819;28;20529;-73
2024/02/16 07:44:16;;;;;;;30.88;18.02;;;;;;;4.35;89.01;93608.19;5069570;28;20524;-72
2024/02/16 07:46:45;;;;;;;35.97;21.27;;;;;;;4.53;89.06;93602.09;5067715;28;20048;-72
2024/02/16 07:49:12;;;;;;;37.97;23.48;;;;;;;4.64;87.61;93599.22;5071217;28;20048;-72
2024/02/16 07:51:40;;;;;;;37.80;23.27;;;;;;;4.81;88.07;93606.78;5076856;28;20068;-72
2024/02/16 07:54:07;;;;;;;36.15;21.35;;;;;;;4.89;87.62;93596.59;5074582;28;20049;-72
2024/02/16 07:56:34;;;;;;;31.00;20.58;;;;;;;5.10;86.33;93604.63;5077225;28;20059;-72
2024/02/16 07:59:01;;;;;;;31.40;20.30;;;;;;;5.21;85.18;93605.06;5068633;28;20041;-72
2024/02/16 08:01:29;;;;;;;25.65;16.90;;;;;;;5.29;85.15;93596.59;5070024;28;20052;-72
2024/02/16 08:03:57;;;;;;;30.90;19.45;;;;;;;5.51;85.09;93612.06;5068924;28;20139;-72
2024/02/16 08:06:26;;;;;;;29.13;17.70;;;;;;;5.68;85.39;93612.78;5068210;28;20084;-72
2024/02/16 08:08:53;;;;;;;17.50;11.20;;;;;;;5.83;83.54;93606.94;5072733;28;20131;-73
2024/02/16 08:11:21;;;;;;;25.05;14.80;;;;;;;5.88;81.78;93602.91;5073224;28;20051;-73
2024/02/16 08:13:48;;;;;;;19.23;13.23;;;;;;;5.89;79.90;93614.69;5067169;28;20106;-73
2024/02/16 08:16:15;;;;;;;16.27;11.30;;;;;;;5.61;78.40;93620.28;5083222;28;20127;-73
2024/02/16 08:18:45;;;;;;;19.88;11.80;;;;;;;5.68;80.91;93604.31;5068021;28;20054;-73
2024/02/16 08:21:13;;;;;;;17.45;10.32;;;;;;;5.78;78.07;93615.09;5069279;28;20045;-73
2024/02/16 08:23:40;;;;;;;17.63;11.82;;;;;;;5.72;78.16;93605.56;5080331;28;20062;-73
2024/02/16 08:26:07;;;;;;;17.27;10.60;;;;;;;5.62;79.54;93606.59;5073759;28;20412;-74
2024/02/16 08:28:34;;;;;;;18.73;10.55;;;;;;;5.62;78.90;93611.69;5071451;28;20564;-73
2024/02/16 08:31:01;;;;;;;16.40;10.95;;;;;;;5.79;80.87;93598.81;5077925;28;20048;-74
2024/02/16 08:33:28;;;;;;;19.20;11.98;;;;;;;6.05;82.01;93607.13;5070667;28;20058;-73
2024/02/16 08:35:55;;;;;;;19.95;11.60;;;;;;;6.22;80.28;93607.78;5073048;28;20049;-73
2024/02/16 08:38:23;;;;;;;15.90;11.38;;;;;;;6.19;78.32;93600.47;5082873;28;20059;-73
2024/02/16 08:40:51;;;;;;;15.60;9.35;;;;;;;6.13;76.99;93605.31;5082735;28;20058;-73
2024/02/16 08:43:18;;;;;;;17.50;10.95;;;;;;;6.25;79.39;93604.91;5075661;28;20393;-73
2024/02/16 08:45:45;;;;;;;18.58;12.00;;;;;;;6.18;78.86;93606.53;5072645;28;20041;-73
2024/02/16 08:48:12;;;;;;;13.43;9.18;;;;;;;6.25;78.26;93613.34;5073251;28;20040;-73
2024/02/16 08:50:39;;;;;;;12.65;8.32;;;;;;;5.79;78.22;93610.78;5074878;28;20046;-73
2024/02/16 08:53:06;;;;;;;12.80;8.63;;;;;;;6.26;78.06;93612.38;5078579;28;20504;-73
2024/02/16 08:55:34;;;;;;;14.23;10.82;;;;;;;6.50;77.04;93615.69;5071240;28;20769;-73
2024/02/16 08:58:01;;;;;;;17.08;9.90;;;;;;;6.71;76.38;93609.06;5074142;28;20050;-73
2024/02/16 09:00:28;;;;;;;15.43;11.10;;;;;;;6.89;78.14;93613.84;5070534;28;20055;-73
2024/02/16 09:02:55;;;;;;;13.60;9.38;;;;;;;7.12;79.20;93612.94;5069615;28;20049;-73
2024/02/16 09:05:23;;;;;;;13.57;9.45;;;;;;;7.12;78.45;93610.38;5073849;28;20055;-73
2024/02/16 09:07:50;;;;;;;19.85;9.25;;;;;;;7.33;79.00;93611.44;5071449;28;20076;-73
2024/02/16 09:10:17;;;;;;;11.60;8.30;;;;;;;7.59;78.09;93612.69;5072927;28;20051;-73
2024/02/16 09:12:45;;;;;;;24.88;14.25;;;;;;;7.55;71.04;93607.13;5079005;28;20435;-73
2024/02/16 09:15:12;;;;;;;272.20;120.97;;;;;;;7.77;70.33;93617.38;5072938;28;20068;-73
2024/02/16 09:17:39;;;;;;;21.00;12.18;;;;;;;7.38;70.17;93618.53;5073618;28;20044;-73
2024/02/16 09:20:08;;;;;;;15.45;9.05;;;;;;;7.34;71.61;93618.13;5072507;28;20044;-73
2024/02/16 09:22:35;;;;;;;17.10;9.32;;;;;;;7.64;74.63;93619.81;5072388;28;20055;-73
2024/02/16 09:25:03;;;;;;;13.57;8.77;;;;;;;7.69;73.17;93623.41;5071417;28;20056;-73
2024/02/16 09:27:30;;;;;;;14.27;8.60;;;;;;;7.88;74.04;93613.56;5069120;28;20072;-73
2024/02/16 09:29:58;;;;;;;14.27;7.32;;;;;;;7.96;68.67;93628.78;5070976;28;20051;-73
2024/02/16 09:32:25;;;;;;;21.75;11.02;;;;;;;7.71;69.69;93629.13;5076657;28;20131;-73
2024/02/16 09:34:54;;;;;;;13.35;7.35;;;;;;;7.48;70.16;93619.06;5069460;28;20048;-73
2024/02/16 09:37:21;;;;;;;31.08;14.77;;;;;;;7.86;73.50;93611.19;5071198;28;20041;-73
2024/02/16 09:39:48;;;;;;;27.65;13.73;;;;;;;8.00;71.03;93612.09;5070258;28;20059;-73
2024/02/16 09:42:16;;;;;;;11.90;6.47;;;;;;;7.83;69.41;93611.53;5071176;28;20426;-73
2024/02/16 09:44:45;;;;;;;11.27;6.63;;;;;;;7.87;68.66;93617.88;5075864;28;20412;-73
2024/02/16 09:47:19;;;;;;;8.27;5.97;;;;;;;8.00;69.36;93613.84;5070966;28;20049;-73
2024/02/16 09:49:45;;;;;;;10.43;6.10;;;;;;;8.13;68.58;93608.88;5072087;28;20040;-73
2024/02/16 09:52:14;;;;;;;10.98;7.18;;;;;;;8.38;70.29;93612.78;5073095;28;20066;-73
2024/02/16 09:54:41;;;;;;;69.72;31.50;;;;;;;8.58;67.37;93609.59;5071385;28;20051;-73
2024/02/16 09:57:08;;;;;;;13.23;7.82;;;;;;;8.82;69.29;93600.69;5071853;28;20048;-73
2024/02/16 09:59:35;;;;;;;10.73;7.18;;;;;;;8.67;66.85;93605.94;5071872;28;20046;-73
2024/02/16 10:02:02;;;;;;;12.07;7.20;;;;;;;8.89;66.07;93595.59;5069324;28;20566;-73
2024/02/16 10:04:31;;;;;;;27.25;15.77;;;;;;;8.98;64.05;93598.81;5079306;28;20055;-73
2024/02/16 10:06:58;;;;;;;9.32;7.28;;;;;;;8.60;64.09;93594.84;5072291;28;20044;-73
2024/02/16 10:09:26;;;;;;;20.67;12.73;;;;;;;8.52;63.89;93603.47;5072443;28;20047;-73
2024/02/16 10:11:53;;;;;;;8.20;6.13;;;;;;;8.78;64.58;93600.28;5071213;28;20143;-73
2024/02/16 10:14:20;;;;;;;11.73;6.45;;;;;;;8.79;63.04;93599.28;5069528;28;20572;-73
2024/02/16 10:16:48;;;;;;;8.05;6.05;;;;;;;8.95;63.32;93593.06;5074676;28;20055;-73
2024/02/16 10:19:18;;;;;;;15.95;9.07;;;;;;;8.82;64.67;93586.13;5068587;28;20047;-73
2024/02/16 10:21:46;;;;;;;11.93;6.82;;;;;;;9.17;65.93;93584.50;5070020;28;20046;-73
2024/02/16 10:24:14;;;;;;;9.18;6.45;;;;;;;9.34;62.82;93587.50;5069075;28;20492;-73
2024/02/16 10:26:41;;;;;;;10.93;6.85;;;;;;;9.57;65.44;93589.75;5069257;28;20500;-73
2024/02/16 10:29:11;;;;;;;9.05;6.38;;;;;;;9.72;63.82;93581.09;5069000;28;20052;-73
2024/02/16 10:31:38;;;;;;;11.75;7.07;;;;;;;9.83;60.43;93585.66;5069744;28;20056;-73
2024/02/16 10:34:06;;;;;;;8.80;6.18;;;;;;;9.72;58.54;93579.31;5070727;28;20139;-73
2024/02/16 10:36:35;;;;;;;12.73;7.45;;;;;;;9.97;64.71;93562.56;5072591;28;20048;-73
2024/02/16 10:39:05;;;;;;;11.68;6.80;;;;;;;10.28;64.59;93568.91;5070858;28;20423;-73
2024/02/16 10:41:35;;;;;;;10.70;6.82;;;;;;;10.24;61.89;93567.72;5068842;28;20053;-73
2024/02/16 10:44:04;;;;;;;13.48;8.05;;;;;;;10.22;61.46;93574.81;5077185;28;20420;-73
2024/02/16 10:46:31;;;;;;;13.13;7.00;;;;;;;10.33;59.19;93576.00;5071050;28;20752;-73
2024/02/16 10:48:58;;;;;;;12.65;6.13;;;;;;;10.48;58.23;93575.81;5070189;28;20050;-73
2024/02/16 10:51:31;;;;;;;11.35;7.18;;;;;;;10.38;58.97;93574.41;5071154;28;20049;-73
2024/02/16 10:54:01;;;;;;;7.78;6.25;;;;;;;10.24;59.23;93563.34;5075059;28;20503;-73
2024/02/16 10:56:34;;;;;;;10.40;7.25;;;;;;;10.45;60.14;93559.03;5070103;28;20040;-73
2024/02/16 10:59:05;;;;;;;11.70;8.07;;;;;;;10.68;62.87;93550.09;5070215;28;20055;-73
2024/02/16 11:01:39;;;;;;;15.93;9.18;;;;;;;10.65;61.09;93519.69;5077075;28;20119;-73
2024/02/16 11:04:09;;;;;;;10.63;6.97;;;;;;;11.09;60.87;93551.56;5075469;28;20052;-73
2024/02/16 11:06:53;;;;;;;14.60;8.85;;;;;;;11.08;57.32;93556.91;5077790;28;20064;-73
2024/02/16 11:09:30;;;;;;;8.90;5.95;;;;;;;10.69;56.39;93557.59;5070047;28;20039;-73
2024/02/16 11:12:01;;;;;;;10.27;6.55;;;;;;;10.36;58.58;93547.34;5070465;28;20078;-73
2024/02/16 11:14:35;;;;;;;10.23;7.43;;;;;;;10.90;61.87;93550.63;5081216;28;20050;-73
2024/02/16 11:17:03;;;;;;;12.45;7.32;;;;;;;11.19;62.84;93545.16;5069889;28;20416;-74
2024/02/16 11:19:31;;;;;;;8.82;5.78;;;;;;;10.95;57.42;93550.00;5069599;28;20045;-73
2024/02/16 11:21:58;;;;;;;9.20;5.50;;;;;;;10.77;58.95;93546.31;5070820;28;20053;-73
2024/02/16 11:24:33;;;;;;;8.18;5.65;;;;;;;10.86;59.22;93541.75;5071885;28;20052;-73